createdAt,value
2023-01-11T00:02:08.251Z,2.00
2023-01-11T00:04:40.240Z,2.00
2023-01-11T00:07:12.214Z,2.13
2023-01-11T00:09:44.786Z,2.07
2023-01-11T00:12:16.801Z,2.20
2023-01-11T00:14:48.780Z,2.10
2023-01-11T00:17:20.748Z,2.07
2023-01-11T00:19:52.653Z,1.67
2023-01-11T00:22:24.614Z,1.60
2023-01-11T00:24:56.550Z,1.60
2023-01-11T00:27:28.432Z,1.70
2023-01-11T00:30:00.456Z,1.63
2023-01-11T00:32:32.381Z,1.77
2023-01-11T00:35:04.831Z,1.80
2023-01-11T00:37:36.898Z,1.60
2023-01-11T00:40:09.715Z,1.63
2023-01-11T00:43:00.352Z,1.50
2023-01-11T00:45:50.887Z,1.70
2023-01-11T00:48:23.217Z,1.80
2023-01-11T00:50:57.396Z,1.50
2023-01-11T00:53:29.319Z,1.53
2023-01-11T00:56:01.208Z,1.87
2023-01-11T00:58:33.115Z,1.70
2023-01-11T01:01:08.504Z,1.90
2023-01-11T01:03:40.428Z,1.70
2023-01-11T01:06:12.342Z,1.80
2023-01-11T01:08:44.356Z,1.80
2023-01-11T01:11:16.250Z,1.90
2023-01-11T01:14:07.256Z,1.97
2023-01-11T01:16:39.134Z,2.20
2023-01-11T01:19:11.112Z,2.30
2023-01-11T01:21:43.296Z,2.07
2023-01-11T01:24:15.847Z,2.30
2023-01-11T01:26:47.818Z,2.17
2023-01-11T01:29:19.853Z,2.43
2023-01-11T01:31:52.038Z,2.50
2023-01-11T01:34:23.940Z,2.47
2023-01-11T01:36:56.162Z,2.53
2023-01-11T01:39:28.240Z,2.77
2023-01-11T01:42:00.449Z,2.83
2023-01-11T01:45:23.150Z,2.83
2023-01-11T01:48:03.759Z,3.07
2023-01-11T01:50:45.607Z,2.63
2023-01-11T01:53:37.035Z,3.00
2023-01-11T01:56:23.712Z,2.77
2023-01-11T01:59:03.032Z,2.70
2023-01-11T02:01:47.378Z,2.70
2023-01-11T02:04:30.394Z,2.87
2023-01-11T02:07:13.430Z,2.63
2023-01-11T02:10:00.567Z,2.57
2023-01-11T02:12:43.495Z,2.80
2023-01-11T02:15:19.685Z,2.43
2023-01-11T02:17:51.937Z,2.50
2023-01-11T02:20:51.366Z,2.33
2023-01-11T02:24:05.055Z,2.40
2023-01-11T02:27:16.384Z,2.20
2023-01-11T02:30:15.897Z,2.20
2023-01-11T02:33:04.149Z,2.00
2023-01-11T02:36:13.602Z,2.20
2023-01-11T02:38:59.846Z,1.90
2023-01-11T02:41:56.299Z,2.00
2023-01-11T02:44:57.281Z,1.90
2023-01-11T02:47:57.449Z,1.93
2023-01-11T02:51:02.545Z,1.60
2023-01-11T02:53:47.604Z,1.80
2023-01-11T02:56:26.656Z,1.80
2023-01-11T02:59:01.042Z,1.43
2023-01-11T03:01:33.055Z,1.80
2023-01-11T03:04:04.999Z,1.80
2023-01-11T03:06:37.015Z,1.80
2023-01-11T03:09:52.436Z,1.70
2023-01-11T03:12:59.638Z,1.60
2023-01-11T03:15:43.255Z,1.70
2023-01-11T03:18:55.496Z,1.40
2023-01-11T03:21:57.640Z,1.50
2023-01-11T03:24:44.148Z,1.50
2023-01-11T03:27:50.615Z,1.60
2023-01-11T03:30:34.588Z,1.23
2023-01-11T03:33:34.609Z,1.33
2023-01-11T03:36:35.659Z,1.40
2023-01-11T03:39:47.415Z,1.43
2023-01-11T03:42:23.673Z,1.20
2023-01-11T03:44:59.708Z,1.30
2023-01-11T03:47:34.915Z,1.30
2023-01-11T03:50:12.528Z,1.30
2023-01-11T03:52:45.730Z,1.30
2023-01-11T03:55:18.261Z,1.10
2023-01-11T03:57:53.475Z,1.10
2023-01-11T04:00:28.030Z,1.20
2023-01-11T04:03:00.851Z,1.10
2023-01-11T04:05:34.825Z,1.13
2023-01-11T04:08:06.787Z,1.10
2023-01-11T04:10:39.458Z,1.33
2023-01-11T04:13:11.685Z,1.20
2023-01-11T04:15:43.597Z,1.10
2023-01-11T04:18:15.556Z,1.00
2023-01-11T04:20:47.694Z,1.30
2023-01-11T04:23:19.736Z,1.40
2023-01-11T04:25:53.286Z,1.60
2023-01-11T04:28:25.265Z,1.50
2023-01-11T04:30:57.264Z,1.30
2023-01-11T04:33:29.212Z,1.50
2023-01-11T04:36:09.271Z,1.50
2023-01-11T04:38:41.245Z,1.50
2023-01-11T04:41:31.615Z,1.50
2023-01-11T04:44:03.839Z,1.60
2023-01-11T04:46:35.807Z,1.70
2023-01-11T04:49:07.795Z,1.50
2023-01-11T04:51:39.882Z,1.50
2023-01-11T04:54:11.900Z,1.60
2023-01-11T04:56:43.803Z,1.60
2023-01-11T04:59:15.769Z,1.70
2023-01-11T05:01:47.729Z,1.60
2023-01-11T05:04:19.762Z,1.50
2023-01-11T05:06:52.494Z,1.50
2023-01-11T05:09:24.504Z,1.57
2023-01-11T05:11:56.432Z,1.50
2023-01-11T05:14:28.423Z,1.70
2023-01-11T05:17:00.377Z,1.40
2023-01-11T05:19:32.360Z,1.37
2023-01-11T05:22:04.253Z,1.20
2023-01-11T05:24:36.769Z,1.13
2023-01-11T05:27:09.216Z,1.07
2023-01-11T05:29:41.173Z,1.30
2023-01-11T05:32:13.537Z,1.50
2023-01-11T05:34:45.416Z,1.80
2023-01-11T05:37:17.373Z,2.27
2023-01-11T05:39:49.351Z,2.40
2023-01-11T05:42:22.283Z,2.73
2023-01-11T05:45:12.826Z,2.80
2023-01-11T05:47:44.782Z,3.60
2023-01-11T05:50:17.037Z,3.17
2023-01-11T05:52:48.960Z,3.37
2023-01-11T05:55:20.980Z,2.97
2023-01-11T05:57:52.979Z,3.43
2023-01-11T06:00:25.030Z,3.80
2023-01-11T06:02:57.220Z,3.83
2023-01-11T06:05:29.235Z,4.17
2023-01-11T06:08:01.225Z,4.20
2023-01-11T06:10:33.898Z,4.53
2023-01-11T06:13:24.897Z,4.80
2023-01-11T06:16:07.881Z,4.20
2023-01-11T06:18:44.157Z,3.80
2023-01-11T06:21:17.792Z,2.90
2023-01-11T06:23:53.304Z,2.90
2023-01-11T06:26:25.342Z,2.90
2023-01-11T06:28:57.246Z,2.93
2023-01-11T06:31:29.122Z,3.10
2023-01-11T06:34:01.082Z,2.90
2023-01-11T06:36:33.045Z,2.50
2023-01-11T06:39:06.089Z,2.97
2023-01-11T06:41:37.967Z,2.73
2023-01-11T06:44:09.902Z,2.57
2023-01-11T06:46:41.853Z,2.80
2023-01-11T06:49:14.108Z,3.20
2023-01-11T06:51:46.066Z,2.77
2023-01-11T06:54:22.003Z,2.73
2023-01-11T06:56:53.998Z,3.23
2023-01-11T06:59:25.910Z,3.97
2023-01-11T07:01:58.954Z,3.17
2023-01-11T07:04:31.096Z,3.20
2023-01-11T07:07:03.173Z,3.37
2023-01-11T07:09:35.135Z,3.87
2023-01-11T07:12:07.121Z,3.70
2023-01-11T07:14:39.064Z,3.30
2023-01-11T07:17:10.986Z,3.80
2023-01-11T07:19:42.890Z,3.40
2023-01-11T07:22:16.081Z,3.87
2023-01-11T07:24:48.935Z,3.90
2023-01-11T07:27:21.095Z,3.60
2023-01-11T07:29:53.512Z,4.37
2023-01-11T07:32:27.518Z,4.30
2023-01-11T07:34:59.434Z,4.20
2023-01-11T07:37:32.793Z,4.27
2023-01-11T07:40:05.912Z,4.33
2023-01-11T07:42:56.369Z,4.53
2023-01-11T07:45:37.341Z,4.10
2023-01-11T07:48:21.822Z,4.07
2023-01-11T07:50:54.786Z,3.90
2023-01-11T07:53:26.794Z,4.27
2023-01-11T07:55:58.712Z,3.53
2023-01-11T07:58:31.464Z,4.43
2023-01-11T08:01:03.378Z,4.30
2023-01-11T08:03:35.376Z,4.00
2023-01-11T08:06:07.695Z,4.13
2023-01-11T08:08:39.592Z,3.63
2023-01-11T08:11:31.128Z,4.20
2023-01-11T08:14:21.823Z,3.63
2023-01-11T08:16:53.740Z,4.23
2023-01-11T08:19:25.701Z,4.30
2023-01-11T08:21:57.626Z,4.00
2023-01-11T08:24:29.955Z,3.60
2023-01-11T08:27:05.630Z,4.03
2023-01-11T08:29:38.079Z,4.90
2023-01-11T08:32:11.581Z,3.83
2023-01-11T08:34:43.471Z,4.13
2023-01-11T08:37:15.564Z,4.00
2023-01-11T08:39:48.587Z,4.30
2023-01-11T08:42:20.598Z,4.50
2023-01-11T08:44:52.529Z,4.27
2023-01-11T08:47:24.510Z,4.27
2023-01-11T08:49:56.524Z,4.63
2023-01-11T08:52:28.540Z,4.30
2023-01-11T08:55:00.564Z,4.13
2023-01-11T08:57:32.520Z,4.10
2023-01-11T09:00:06.334Z,3.73
2023-01-11T09:02:38.361Z,3.80
2023-01-11T09:05:10.553Z,3.87
2023-01-11T09:07:42.445Z,3.83
2023-01-11T09:10:14.424Z,3.20
2023-01-11T09:12:46.390Z,3.93
2023-01-11T09:15:18.334Z,3.87
2023-01-11T09:17:50.555Z,3.23
2023-01-11T09:20:24.269Z,3.63
2023-01-11T09:22:56.235Z,3.50
2023-01-11T09:25:28.312Z,4.00
2023-01-11T09:28:00.294Z,3.50
2023-01-11T09:30:32.208Z,3.80
2023-01-11T09:33:04.999Z,3.00
2023-01-11T09:35:38.795Z,3.60
2023-01-11T09:38:10.749Z,3.90
2023-01-11T09:41:24.166Z,3.53
2023-01-11T09:44:10.514Z,3.30
2023-01-11T09:46:52.560Z,4.07
2023-01-11T09:49:42.957Z,3.90
2023-01-11T09:52:38.192Z,3.40
2023-01-11T09:55:23.065Z,3.57
2023-01-11T09:58:03.134Z,3.53
2023-01-11T10:00:56.511Z,3.83
2023-01-11T10:03:53.185Z,2.87
2023-01-11T10:06:42.414Z,3.27
2023-01-11T10:18:30.184Z,3.97
2023-01-11T10:19:57.889Z,3.27
2023-01-11T10:22:41.999Z,3.30
2023-01-11T10:25:26.665Z,3.83
2023-01-11T10:28:06.807Z,4.07
2023-01-11T10:30:58.507Z,4.00
2023-01-11T10:34:02.507Z,3.53
2023-01-11T10:37:27.676Z,3.93
2023-01-11T10:41:05.681Z,3.70
2023-01-11T10:43:47.768Z,4.00
2023-01-11T10:46:25.743Z,3.53
2023-01-11T10:49:44.119Z,3.40
2023-01-11T10:52:41.561Z,4.10
2023-01-11T10:56:05.134Z,3.60
2023-01-11T10:59:04.978Z,4.07
2023-01-11T11:02:06.087Z,3.70
2023-01-11T11:05:26.259Z,3.97
2023-01-11T11:08:34.785Z,3.83
2023-01-11T11:11:53.289Z,3.70
2023-01-11T11:14:37.745Z,3.67
2023-01-11T11:17:18.490Z,3.90
2023-01-11T11:19:51.698Z,4.00
2023-01-11T11:22:24.072Z,3.90
2023-01-11T11:25:04.441Z,3.53
2023-01-11T11:28:05.974Z,3.80
2023-01-11T11:30:47.341Z,3.50
2023-01-11T11:33:39.833Z,3.80
2023-01-11T11:36:14.255Z,3.50
2023-01-11T11:39:10.698Z,3.50
2023-01-11T11:41:56.267Z,3.50
2023-01-11T11:44:29.023Z,3.83
2023-01-11T11:47:16.196Z,4.10
2023-01-11T11:49:48.411Z,3.93
2023-01-11T11:52:20.852Z,3.50
2023-01-11T11:54:58.318Z,3.50
2023-01-11T11:57:38.907Z,3.60
2023-01-11T12:00:34.779Z,3.60
2023-01-11T12:03:22.852Z,3.70
2023-01-11T12:05:58.588Z,3.73
2023-01-11T12:08:35.473Z,3.60
2023-01-11T12:11:19.350Z,3.97
2023-01-11T12:14:06.295Z,3.60
2023-01-11T12:16:43.205Z,3.77
2023-01-11T12:19:48.069Z,3.80
2023-01-11T12:22:26.556Z,3.53
2023-01-11T12:25:13.853Z,3.37
2023-01-11T12:28:13.597Z,4.00
2023-01-11T12:31:17.766Z,3.50
2023-01-11T12:34:34.256Z,3.43
2023-01-11T12:37:33.535Z,3.53
2023-01-11T12:40:35.945Z,3.77
2023-01-11T12:43:33.121Z,3.50
2023-01-11T12:46:29.630Z,3.63
2023-01-11T12:49:34.183Z,4.15
2023-01-11T12:52:44.325Z,3.60
2023-01-11T12:55:46.912Z,3.40
2023-01-11T12:58:52.896Z,3.87
2023-01-11T13:02:17.537Z,3.53
2023-01-11T13:05:25.138Z,3.83
2023-01-11T13:08:28.980Z,3.60
2023-01-11T13:11:43.586Z,3.57
2023-01-11T13:14:45.341Z,4.00
2023-01-11T13:17:41.096Z,3.43
2023-01-11T13:21:00.635Z,3.80
2023-01-11T13:23:45.613Z,3.53
2023-01-11T13:26:28.090Z,3.30
2023-01-11T13:29:19.373Z,3.63
2023-01-11T13:31:54.377Z,3.47
2023-01-11T13:34:38.791Z,3.90
2023-01-11T13:37:29.527Z,3.47
2023-01-11T13:40:19.062Z,3.93
2023-01-11T13:43:01.726Z,3.70
2023-01-11T13:45:46.878Z,3.40
2023-01-11T13:48:31.673Z,3.43
2023-01-11T13:51:33.506Z,3.90
2023-01-11T13:54:14.112Z,3.23
2023-01-11T13:57:01.909Z,3.60
2023-01-11T13:59:50.372Z,3.73
2023-01-11T14:02:43.007Z,3.47
2023-01-11T14:05:22.135Z,3.57
2023-01-11T14:08:11.945Z,3.60
2023-01-11T14:11:07.192Z,3.87
2023-01-11T14:14:13.912Z,3.37
2023-01-11T14:17:36.662Z,4.07
2023-01-11T14:20:43.147Z,3.80
2023-01-11T14:23:32.174Z,4.20
2023-01-11T14:26:41.147Z,3.70
2023-01-11T14:29:41.189Z,3.60
2023-01-11T14:32:49.638Z,3.43
2023-01-11T14:35:49.604Z,3.73
2023-01-11T14:38:29.898Z,4.03
2023-01-11T14:41:41.526Z,4.10
2023-01-11T14:44:48.310Z,3.90
2023-01-11T14:48:02.426Z,3.93
2023-01-11T14:51:32.471Z,3.70
2023-01-11T14:54:21.400Z,3.80
2023-01-11T14:56:59.291Z,4.07
2023-01-11T14:59:31.156Z,3.97
2023-01-11T15:02:07.630Z,3.93
2023-01-11T15:04:59.935Z,4.03
2023-01-11T15:07:31.848Z,4.30
2023-01-11T15:10:29.849Z,3.80
2023-01-11T15:13:10.674Z,3.40
2023-01-11T15:16:01.398Z,3.97
2023-01-11T15:18:45.616Z,3.83
2023-01-11T15:21:26.882Z,3.90
2023-01-11T15:23:59.280Z,4.07
2023-01-11T15:26:31.359Z,3.27
2023-01-11T15:29:03.475Z,4.00
2023-01-11T15:31:48.057Z,3.80
2023-01-11T15:34:42.417Z,3.97
2023-01-11T15:38:17.351Z,3.77
2023-01-11T15:40:51.784Z,3.83
2023-01-11T15:44:03.779Z,4.10
2023-01-11T15:47:05.964Z,3.70
2023-01-11T15:50:33.588Z,4.03
2023-01-11T15:53:41.248Z,3.80
2023-01-11T15:56:46.742Z,3.67
2023-01-11T15:59:30.302Z,3.13
2023-01-11T16:02:13.939Z,3.43
2023-01-11T16:05:14.867Z,3.33
2023-01-11T16:07:59.122Z,3.33
2023-01-11T16:10:50.247Z,2.70
2023-01-11T16:14:19.213Z,3.10
2023-01-11T16:16:55.348Z,3.40
2023-01-11T16:19:35.745Z,3.67
2023-01-11T16:22:19.651Z,3.37
2023-01-11T16:25:01.350Z,3.20
2023-01-11T16:27:35.337Z,3.10
2023-01-11T16:30:17.312Z,3.33
2023-01-11T16:32:49.564Z,3.50
2023-01-11T16:35:25.161Z,3.57
2023-01-11T16:38:02.593Z,4.37
2023-01-11T16:40:43.256Z,3.40
2023-01-11T16:43:26.705Z,3.40
2023-01-11T16:45:58.844Z,3.20
2023-01-11T16:48:30.831Z,3.60
2023-01-11T16:51:17.063Z,3.30
2023-01-11T16:53:58.075Z,2.93
2023-01-11T16:56:35.341Z,3.60
2023-01-11T16:59:19.154Z,3.07
2023-01-11T17:01:58.848Z,3.07
2023-01-11T17:04:54.204Z,3.57
2023-01-11T17:07:30.024Z,2.53
2023-01-11T17:10:23.903Z,3.67
2023-01-11T17:13:44.113Z,2.87
2023-01-11T17:16:17.241Z,3.03
2023-01-11T17:18:49.835Z,2.70
2023-01-11T17:21:28.362Z,3.40
2023-01-11T17:24:06.872Z,3.60
2023-01-11T17:26:50.534Z,3.17
2023-01-11T17:29:39.706Z,4.45
2023-01-11T17:32:29.854Z,4.93
2023-01-11T17:35:26.662Z,4.27
2023-01-11T17:38:06.097Z,5.00
2023-01-11T17:40:42.143Z,7.30
2023-01-11T17:43:56.832Z,4.73
2023-01-11T17:46:28.938Z,4.00
2023-01-11T17:49:02.216Z,3.70
2023-01-11T17:51:35.217Z,4.27
2023-01-11T17:54:22.543Z,3.20
2023-01-11T17:57:01.135Z,4.00
2023-01-11T17:59:34.147Z,3.57
2023-01-11T18:02:14.953Z,3.53
2023-01-11T18:04:58.527Z,3.40
2023-01-11T18:07:30.668Z,5.07
2023-01-11T18:10:03.910Z,4.70
2023-01-11T18:12:36.055Z,3.63
2023-01-11T18:15:18.188Z,3.10
2023-01-11T18:17:56.785Z,3.67
2023-01-11T18:20:40.266Z,3.53
2023-01-11T18:23:12.166Z,3.63
2023-01-11T18:25:46.530Z,3.50
2023-01-11T18:28:27.557Z,4.80
2023-01-11T18:31:01.901Z,4.03
2023-01-11T18:33:34.814Z,3.17
2023-01-11T18:36:23.872Z,3.83
2023-01-11T18:38:56.286Z,3.30
2023-01-11T18:41:46.822Z,4.07
2023-01-11T18:44:18.791Z,3.67
2023-01-11T18:46:51.694Z,3.10
2023-01-11T18:49:23.640Z,3.57
2023-01-11T18:51:55.655Z,3.00
2023-01-11T18:54:27.649Z,3.07
2023-01-11T18:56:59.630Z,3.17
2023-01-11T18:59:31.776Z,2.80
2023-01-11T19:02:42.457Z,3.60
2023-01-11T19:05:18.800Z,3.17
2023-01-11T19:07:50.759Z,3.37
2023-01-11T19:10:23.759Z,3.40
2023-01-11T19:12:57.199Z,3.20
2023-01-11T19:15:29.286Z,3.27
2023-01-11T19:18:03.351Z,3.03
2023-01-11T19:20:36.866Z,3.27
2023-01-11T19:23:09.375Z,2.63
2023-01-11T19:25:41.661Z,3.20
2023-01-11T19:28:13.577Z,3.10
2023-01-11T19:30:45.563Z,2.90
2023-01-11T19:33:17.585Z,3.40
2023-01-11T19:35:49.725Z,2.93
2023-01-11T19:38:21.849Z,3.33
2023-01-11T19:40:53.819Z,3.33
2023-01-11T19:43:25.814Z,3.50
2023-01-11T19:45:58.636Z,3.40
2023-01-11T19:48:35.009Z,3.10
2023-01-11T19:51:11.586Z,3.50
2023-01-11T19:53:43.607Z,3.30
2023-01-11T19:56:15.542Z,3.50
2023-01-11T19:58:47.467Z,3.40
2023-01-11T20:01:19.453Z,3.33
2023-01-11T20:03:51.667Z,3.00
2023-01-11T20:06:23.632Z,3.67
2023-01-11T20:08:56.074Z,2.77
2023-01-11T20:11:28.157Z,3.60
2023-01-11T20:14:00.132Z,3.73
2023-01-11T20:16:32.118Z,3.87
2023-01-11T20:19:04.125Z,4.20
2023-01-11T20:21:36.161Z,4.20
2023-01-11T20:24:11.901Z,5.30
2023-01-11T20:26:46.517Z,4.07
2023-01-11T20:29:18.643Z,3.90
2023-01-11T20:31:50.779Z,3.70
2023-01-11T20:34:22.802Z,3.90
2023-01-11T20:36:54.789Z,3.60
2023-01-11T20:39:27.686Z,4.10
2023-01-11T20:42:02.791Z,3.23
2023-01-11T20:44:34.809Z,3.20
2023-01-11T20:47:06.845Z,3.30
2023-01-11T20:49:38.952Z,3.60
2023-01-11T20:52:11.014Z,2.83
2023-01-11T20:54:42.995Z,3.30
2023-01-11T20:57:14.932Z,3.13
2023-01-11T20:59:46.879Z,3.90
2023-01-11T21:02:18.883Z,3.40
2023-01-11T21:04:50.845Z,3.70
2023-01-11T21:07:22.787Z,3.13
2023-01-11T21:09:54.731Z,3.43
2023-01-11T21:12:26.648Z,3.67
2023-01-11T21:14:58.686Z,3.20
2023-01-11T21:17:30.674Z,3.20
2023-01-11T21:20:02.650Z,3.00
2023-01-11T21:22:34.622Z,3.33
2023-01-11T21:25:07.810Z,3.43
2023-01-11T21:27:39.794Z,3.20
2023-01-11T21:30:12.100Z,3.10
2023-01-11T21:32:44.128Z,2.93
2023-01-11T21:35:16.165Z,3.07
2023-01-11T21:37:48.118Z,2.73
2023-01-11T21:40:20.346Z,2.60
2023-01-11T21:42:52.318Z,2.37
2023-01-11T21:45:24.249Z,2.30
2023-01-11T21:47:56.246Z,2.50
2023-01-11T21:50:28.263Z,2.30
2023-01-11T21:53:00.268Z,2.27
2023-01-11T21:55:33.327Z,2.60
2023-01-11T21:58:05.264Z,2.40
2023-01-11T22:00:37.308Z,2.30
2023-01-11T22:03:09.295Z,2.50
2023-01-11T22:05:41.261Z,2.50
2023-01-11T22:08:13.189Z,2.33
2023-01-11T22:10:55.937Z,2.20
2023-01-11T22:13:33.394Z,2.00
2023-01-11T22:16:10.537Z,1.77
2023-01-11T22:18:43.464Z,1.87
2023-01-11T22:21:19.015Z,1.70
2023-01-11T22:23:58.488Z,1.73
2023-01-11T22:26:33.478Z,1.30
2023-01-11T22:29:16.589Z,1.20
2023-01-11T22:31:55.419Z,1.40
2023-01-11T22:34:28.290Z,1.77
2023-01-11T22:37:00.588Z,1.20
2023-01-11T22:39:32.898Z,1.67
2023-01-11T22:42:05.504Z,1.20
2023-01-11T22:44:37.399Z,1.20
2023-01-11T22:47:09.383Z,1.47
2023-01-11T22:49:41.354Z,1.40
2023-01-11T22:52:13.300Z,1.50
2023-01-11T22:54:45.270Z,1.90
2023-01-11T22:57:17.301Z,2.00
2023-01-11T22:59:49.307Z,1.47
2023-01-11T23:02:21.366Z,1.73
2023-01-11T23:04:53.355Z,2.70
2023-01-11T23:07:25.406Z,2.10
2023-01-11T23:09:57.382Z,1.80
2023-01-11T23:12:48.142Z,2.03
2023-01-11T23:15:20.069Z,1.87
2023-01-11T23:17:52.088Z,2.47
2023-01-11T23:20:24.136Z,2.60
2023-01-11T23:22:56.051Z,2.30
2023-01-11T23:25:28.036Z,2.13
2023-01-11T23:27:59.944Z,2.43
2023-01-11T23:30:31.906Z,2.03
2023-01-11T23:33:03.926Z,2.80
2023-01-11T23:35:35.907Z,2.40
2023-01-11T23:38:07.864Z,2.23
2023-01-11T23:40:59.791Z,2.30
2023-01-11T23:43:31.696Z,2.30
2023-01-11T23:46:24.391Z,2.37
2023-01-11T23:48:56.306Z,2.13
2023-01-11T23:51:28.271Z,2.63
2023-01-11T23:54:02.197Z,2.23
2023-01-11T23:56:35.441Z,2.23
2023-01-11T23:59:08.603Z,2.07
